sensor_id;sensor_type;location;lat;lon;timestamp;pressure;altitude;pressure_sealevel;temperature;humidity
44751;BME280;30477;48.224;11.470;2023-12-22T00:00:03;94570.56;;;5.32;77.71
44751;BME280;30477;48.224;11.470;2023-12-22T00:02:30;94596.44;;;5.38;77.56
44751;BME280;30477;48.224;11.470;2023-12-22T00:04:55;94652.47;;;5.15;77.02
44751;BME280;30477;48.224;11.470;2023-12-22T00:07:20;94661.28;;;4.46;76.46
44751;BME280;30477;48.224;11.470;2023-12-22T00:09:46;94650.53;;;4.03;75.59
44751;BME280;30477;48.224;11.470;2023-12-22T00:12:11;94623.75;;;3.18;75.77
44751;BME280;30477;48.224;11.470;2023-12-22T00:14:36;94632.66;;;2.93;76.46
44751;BME280;30477;48.224;11.470;2023-12-22T00:17:03;94658.53;;;2.69;76.03
44751;BME280;30477;48.224;11.470;2023-12-22T00:19:28;94641.13;;;2.84;76.61
44751;BME280;30477;48.224;11.470;2023-12-22T00:21:53;94649.06;;;2.91;76.84
44751;BME280;30477;48.224;11.470;2023-12-22T00:24:19;94659.72;;;2.65;77.17
44751;BME280;30477;48.224;11.470;2023-12-22T00:26:44;94656.31;;;2.64;77.15
44751;BME280;30477;48.224;11.470;2023-12-22T00:29:09;94645.91;;;2.47;77.02
44751;BME280;30477;48.224;11.470;2023-12-22T00:31:35;94639.34;;;2.54;77.71
44751;BME280;30477;48.224;11.470;2023-12-22T00:34:00;94626.44;;;2.55;77.54
44751;BME280;30477;48.224;11.470;2023-12-22T00:36:26;94627.75;;;2.50;78.32
44751;BME280;30477;48.224;11.470;2023-12-22T00:38:51;94638.22;;;2.47;78.08
44751;BME280;30477;48.224;11.470;2023-12-22T00:41:17;94637.56;;;2.44;78.34
44751;BME280;30477;48.224;11.470;2023-12-22T00:43:42;94642.38;;;2.48;78.54
44751;BME280;30477;48.224;11.470;2023-12-22T00:46:07;94645.44;;;2.41;78.79
44751;BME280;30477;48.224;11.470;2023-12-22T00:48:33;94663.78;;;2.47;78.76
44751;BME280;30477;48.224;11.470;2023-12-22T00:50:58;94654.25;;;2.49;78.98
44751;BME280;30477;48.224;11.470;2023-12-22T00:53:23;94659.78;;;2.54;79.36
44751;BME280;30477;48.224;11.470;2023-12-22T00:55:49;94646.00;;;2.66;79.36
44751;BME280;30477;48.224;11.470;2023-12-22T00:58:14;94645.88;;;2.68;79.05
44751;BME280;30477;48.224;11.470;2023-12-22T01:00:39;94657.91;;;2.56;79.13
44751;BME280;30477;48.224;11.470;2023-12-22T01:03:05;94670.22;;;2.72;79.91
44751;BME280;30477;48.224;11.470;2023-12-22T01:05:30;94675.84;;;2.66;79.38
44751;BME280;30477;48.224;11.470;2023-12-22T01:07:55;94667.38;;;2.65;79.84
44751;BME280;30477;48.224;11.470;2023-12-22T01:10:21;94665.81;;;2.74;79.63
44751;BME280;30477;48.224;11.470;2023-12-22T01:12:46;94661.81;;;2.60;79.58
44751;BME280;30477;48.224;11.470;2023-12-22T01:15:11;94662.78;;;2.59;80.00
44751;BME280;30477;48.224;11.470;2023-12-22T01:17:37;94673.56;;;2.62;80.23
44751;BME280;30477;48.224;11.470;2023-12-22T01:20:03;94676.47;;;2.58;79.77
44751;BME280;30477;48.224;11.470;2023-12-22T01:22:28;94677.41;;;2.57;79.87
44751;BME280;30477;48.224;11.470;2023-12-22T01:24:56;94685.81;;;2.48;80.15
44751;BME280;30477;48.224;11.470;2023-12-22T01:27:21;94678.28;;;2.46;80.05
44751;BME280;30477;48.224;11.470;2023-12-22T01:29:46;94679.97;;;2.36;80.20
44751;BME280;30477;48.224;11.470;2023-12-22T01:32:12;94681.53;;;2.27;80.52
44751;BME280;30477;48.224;11.470;2023-12-22T01:34:37;94701.50;;;2.22;80.50
44751;BME280;30477;48.224;11.470;2023-12-22T01:37:02;94692.06;;;2.22;80.71
44751;BME280;30477;48.224;11.470;2023-12-22T01:39:28;94691.97;;;2.24;80.87
44751;BME280;30477;48.224;11.470;2023-12-22T01:41:53;94691.91;;;2.14;80.85
44751;BME280;30477;48.224;11.470;2023-12-22T01:44:18;94701.66;;;2.09;81.00
44751;BME280;30477;48.224;11.470;2023-12-22T01:46:44;94689.28;;;2.05;81.07
44751;BME280;30477;48.224;11.470;2023-12-22T01:49:10;94691.94;;;2.03;80.98
44751;BME280;30477;48.224;11.470;2023-12-22T01:51:37;94691.94;;;2.03;81.11
44751;BME280;30477;48.224;11.470;2023-12-22T01:54:05;94687.47;;;1.95;81.23
44751;BME280;30477;48.224;11.470;2023-12-22T01:56:30;94684.31;;;1.92;81.23
44751;BME280;30477;48.224;11.470;2023-12-22T01:58:59;94674.69;;;1.95;81.49
44751;BME280;30477;48.224;11.470;2023-12-22T02:01:25;94688.38;;;1.94;81.58
44751;BME280;30477;48.224;11.470;2023-12-22T02:03:53;94689.09;;;1.85;81.40
44751;BME280;30477;48.224;11.470;2023-12-22T02:06:19;94684.72;;;1.76;81.53
44751;BME280;30477;48.224;11.470;2023-12-22T02:08:47;94695.88;;;1.63;81.56
44751;BME280;30477;48.224;11.470;2023-12-22T02:11:13;94707.72;;;1.65;81.69
44751;BME280;30477;48.224;11.470;2023-12-22T02:13:38;94720.19;;;1.68;81.93
44751;BME280;30477;48.224;11.470;2023-12-22T02:16:06;94718.38;;;1.58;81.84
44751;BME280;30477;48.224;11.470;2023-12-22T02:18:39;94711.44;;;1.38;81.66
44751;BME280;30477;48.224;11.470;2023-12-22T02:21:04;94729.50;;;1.46;82.06
44751;BME280;30477;48.224;11.470;2023-12-22T02:23:30;94714.69;;;1.29;81.64
44751;BME280;30477;48.224;11.470;2023-12-22T02:26:02;94696.88;;;1.29;82.04
44751;BME280;30477;48.224;11.470;2023-12-22T02:28:32;94683.03;;;1.42;82.42
44751;BME280;30477;48.224;11.470;2023-12-22T02:31:09;94672.97;;;1.30;81.93
44751;BME280;30477;48.224;11.470;2023-12-22T02:33:36;94687.38;;;1.31;82.30
44751;BME280;30477;48.224;11.470;2023-12-22T02:36:06;94670.91;;;1.35;82.53
44751;BME280;30477;48.224;11.470;2023-12-22T02:38:33;94665.56;;;1.49;82.53
44751;BME280;30477;48.224;11.470;2023-12-22T02:40:59;94673.44;;;1.46;82.30
44751;BME280;30477;48.224;11.470;2023-12-22T02:43:25;94666.94;;;1.42;82.53
44751;BME280;30477;48.224;11.470;2023-12-22T02:45:51;94660.66;;;1.57;82.64
44751;BME280;30477;48.224;11.470;2023-12-22T02:48:16;94686.41;;;1.54;82.51
44751;BME280;30477;48.224;11.470;2023-12-22T02:50:42;94665.06;;;1.55;82.49
44751;BME280;30477;48.224;11.470;2023-12-22T02:53:07;94652.66;;;1.62;82.63
44751;BME280;30477;48.224;11.470;2023-12-22T02:55:32;94661.00;;;1.64;82.50
44751;BME280;30477;48.224;11.470;2023-12-22T02:57:58;94648.09;;;1.66;82.55
44751;BME280;30477;48.224;11.470;2023-12-22T03:00:24;94650.63;;;1.77;82.40
44751;BME280;30477;48.224;11.470;2023-12-22T03:02:49;94631.34;;;1.84;82.66
44751;BME280;30477;48.224;11.470;2023-12-22T03:05:14;94639.47;;;1.89;82.69
44751;BME280;30477;48.224;11.470;2023-12-22T03:07:40;94621.53;;;2.00;82.46
44751;BME280;30477;48.224;11.470;2023-12-22T03:10:05;94622.66;;;2.08;82.58
44751;BME280;30477;48.224;11.470;2023-12-22T03:12:31;94613.31;;;2.18;82.60
44751;BME280;30477;48.224;11.470;2023-12-22T03:14:56;94604.94;;;2.06;81.89
44751;BME280;30477;48.224;11.470;2023-12-22T03:17:21;94611.56;;;1.97;82.01
44751;BME280;30477;48.224;11.470;2023-12-22T03:19:47;94610.09;;;2.16;82.46
44751;BME280;30477;48.224;11.470;2023-12-22T03:22:12;94621.53;;;2.00;81.97
44751;BME280;30477;48.224;11.470;2023-12-22T03:24:37;94626.38;;;2.03;81.80
44751;BME280;30477;48.224;11.470;2023-12-22T03:27:03;94619.41;;;2.06;81.90
44751;BME280;30477;48.224;11.470;2023-12-22T03:29:29;94621.75;;;2.09;82.32
44751;BME280;30477;48.224;11.470;2023-12-22T03:31:54;94611.91;;;2.25;82.14
44751;BME280;30477;48.224;11.470;2023-12-22T03:34:19;94614.66;;;2.33;82.26
44751;BME280;30477;48.224;11.470;2023-12-22T03:36:45;94613.69;;;2.34;81.81
44751;BME280;30477;48.224;11.470;2023-12-22T03:39:14;94607.81;;;2.43;82.04
44751;BME280;30477;48.224;11.470;2023-12-22T03:41:39;94606.22;;;2.42;81.97
44751;BME280;30477;48.224;11.470;2023-12-22T03:44:04;94609.34;;;2.46;81.66
44751;BME280;30477;48.224;11.470;2023-12-22T03:46:30;94598.66;;;2.31;81.86
44751;BME280;30477;48.224;11.470;2023-12-22T03:48:55;94603.78;;;2.41;81.85
44751;BME280;30477;48.224;11.470;2023-12-22T03:51:21;94601.88;;;2.33;81.67
44751;BME280;30477;48.224;11.470;2023-12-22T03:53:46;94591.22;;;2.28;81.62
44751;BME280;30477;48.224;11.470;2023-12-22T03:56:11;94595.75;;;2.46;82.05
44751;BME280;30477;48.224;11.470;2023-12-22T03:58:37;94606.00;;;2.55;81.76
44751;BME280;30477;48.224;11.470;2023-12-22T04:01:03;94609.69;;;2.41;81.87
44751;BME280;30477;48.224;11.470;2023-12-22T04:03:28;94621.03;;;2.49;81.90
44751;BME280;30477;48.224;11.470;2023-12-22T04:05:54;94628.25;;;2.43;81.75
44751;BME280;30477;48.224;11.470;2023-12-22T04:08:19;94614.06;;;2.51;81.96
44751;BME280;30477;48.224;11.470;2023-12-22T04:10:46;94613.75;;;2.65;82.37
44751;BME280;30477;48.224;11.470;2023-12-22T04:13:11;94602.41;;;2.89;82.54
44751;BME280;30477;48.224;11.470;2023-12-22T04:15:37;94596.94;;;3.13;82.72
44751;BME280;30477;48.224;11.470;2023-12-22T04:18:02;94604.13;;;3.29;82.77
44751;BME280;30477;48.224;11.470;2023-12-22T04:20:28;94591.88;;;3.42;82.45
44751;BME280;30477;48.224;11.470;2023-12-22T04:22:53;94592.59;;;3.54;82.48
44751;BME280;30477;48.224;11.470;2023-12-22T04:25:18;94587.75;;;3.60;82.17
44751;BME280;30477;48.224;11.470;2023-12-22T04:27:44;94594.09;;;3.66;82.00
44751;BME280;30477;48.224;11.470;2023-12-22T04:30:10;94596.34;;;3.69;82.08
44751;BME280;30477;48.224;11.470;2023-12-22T04:32:35;94594.50;;;3.81;81.66
44751;BME280;30477;48.224;11.470;2023-12-22T04:35:01;94597.44;;;3.86;81.16
44751;BME280;30477;48.224;11.470;2023-12-22T04:37:26;94576.44;;;3.92;80.71
44751;BME280;30477;48.224;11.470;2023-12-22T04:39:51;94582.63;;;3.99;80.64
44751;BME280;30477;48.224;11.470;2023-12-22T04:42:17;94576.56;;;4.00;80.17
44751;BME280;30477;48.224;11.470;2023-12-22T04:44:43;94576.28;;;4.03;80.10
44751;BME280;30477;48.224;11.470;2023-12-22T04:47:08;94581.41;;;4.03;79.73
44751;BME280;30477;48.224;11.470;2023-12-22T04:49:34;94588.94;;;4.05;79.47
44751;BME280;30477;48.224;11.470;2023-12-22T04:51:59;94590.16;;;4.11;79.31
44751;BME280;30477;48.224;11.470;2023-12-22T04:54:24;94589.91;;;4.14;79.31
44751;BME280;30477;48.224;11.470;2023-12-22T04:56:50;94589.91;;;4.14;78.78
44751;BME280;30477;48.224;11.470;2023-12-22T04:59:15;94586.09;;;4.18;78.92
44751;BME280;30477;48.224;11.470;2023-12-22T05:01:40;94585.16;;;4.19;78.60
44751;BME280;30477;48.224;11.470;2023-12-22T05:04:07;94586.09;;;4.18;78.39
44751;BME280;30477;48.224;11.470;2023-12-22T05:06:33;94584.88;;;4.22;78.09
44751;BME280;30477;48.224;11.470;2023-12-22T05:08:58;94593.38;;;4.22;78.09
44751;BME280;30477;48.224;11.470;2023-12-22T05:11:24;94601.44;;;4.27;78.04
44751;BME280;30477;48.224;11.470;2023-12-22T05:13:49;94597.91;;;4.38;77.24
44751;BME280;30477;48.224;11.470;2023-12-22T05:16:14;94593.59;;;4.48;76.79
44751;BME280;30477;48.224;11.470;2023-12-22T05:18:40;94600.06;;;4.53;76.39
44751;BME280;30477;48.224;11.470;2023-12-22T05:21:05;94615.66;;;4.59;76.07
44751;BME280;30477;48.224;11.470;2023-12-22T05:23:30;94609.63;;;4.60;75.57
44751;BME280;30477;48.224;11.470;2023-12-22T05:25:56;94615.66;;;4.69;75.03
44751;BME280;30477;48.224;11.470;2023-12-22T05:28:21;94624.28;;;4.68;74.98
44751;BME280;30477;48.224;11.470;2023-12-22T05:30:46;94618.88;;;4.71;74.95
44751;BME280;30477;48.224;11.470;2023-12-22T05:33:12;94624.53;;;4.75;74.63
44751;BME280;30477;48.224;11.470;2023-12-22T05:35:38;94637.88;;;4.78;74.54
44751;BME280;30477;48.224;11.470;2023-12-22T05:38:03;94638.53;;;4.80;74.57
44751;BME280;30477;48.224;11.470;2023-12-22T05:40:30;94626.38;;;4.82;74.21
44751;BME280;30477;48.224;11.470;2023-12-22T05:42:55;94631.53;;;4.82;74.21
44751;BME280;30477;48.224;11.470;2023-12-22T05:45:20;94629.50;;;4.76;74.48
44751;BME280;30477;48.224;11.470;2023-12-22T05:47:46;94648.97;;;4.69;75.04
44751;BME280;30477;48.224;11.470;2023-12-22T05:50:11;94660.75;;;4.52;75.58
44751;BME280;30477;48.224;11.470;2023-12-22T05:52:37;94683.16;;;4.31;76.38
44751;BME280;30477;48.224;11.470;2023-12-22T05:55:03;94709.16;;;4.16;77.29
44751;BME280;30477;48.224;11.470;2023-12-22T05:57:28;94698.50;;;4.01;78.07
44751;BME280;30477;48.224;11.470;2023-12-22T05:59:54;94701.19;;;4.00;78.71
44751;BME280;30477;48.224;11.470;2023-12-22T06:02:19;94714.41;;;3.95;79.34
44751;BME280;30477;48.224;11.470;2023-12-22T06:04:45;94696.31;;;3.87;79.92
44751;BME280;30477;48.224;11.470;2023-12-22T06:07:11;94691.47;;;3.84;80.12
44751;BME280;30477;48.224;11.470;2023-12-22T06:09:36;94696.84;;;3.81;80.16
44751;BME280;30477;48.224;11.470;2023-12-22T06:12:02;94699.25;;;3.73;80.44
44751;BME280;30477;48.224;11.470;2023-12-22T06:14:27;94701.81;;;3.73;80.42
44751;BME280;30477;48.224;11.470;2023-12-22T06:16:52;94702.78;;;3.72;80.67
44751;BME280;30477;48.224;11.470;2023-12-22T06:19:19;94706.25;;;3.71;80.33
44751;BME280;30477;48.224;11.470;2023-12-22T06:21:44;94709.63;;;3.71;80.60
44751;BME280;30477;48.224;11.470;2023-12-22T06:24:09;94713.53;;;3.65;80.51
44751;BME280;30477;48.224;11.470;2023-12-22T06:26:35;94716.78;;;3.68;80.71
44751;BME280;30477;48.224;11.470;2023-12-22T06:29:00;94710.44;;;3.72;80.93
44751;BME280;30477;48.224;11.470;2023-12-22T06:31:25;94713.66;;;3.74;80.76
44751;BME280;30477;48.224;11.470;2023-12-22T06:33:51;94717.06;;;3.74;80.84
44751;BME280;30477;48.224;11.470;2023-12-22T06:36:24;94712.75;;;3.75;80.92
44751;BME280;30477;48.224;11.470;2023-12-22T06:38:50;94712.75;;;3.84;81.07
44751;BME280;30477;48.224;11.470;2023-12-22T06:41:22;94713.41;;;3.77;80.97
44751;BME280;30477;48.224;11.470;2023-12-22T06:43:48;94708.16;;;3.78;81.13
44751;BME280;30477;48.224;11.470;2023-12-22T06:46:22;94713.28;;;3.78;81.18
44751;BME280;30477;48.224;11.470;2023-12-22T06:48:48;94701.28;;;3.79;81.33
44751;BME280;30477;48.224;11.470;2023-12-22T06:51:18;94696.84;;;3.81;81.53
44751;BME280;30477;48.224;11.470;2023-12-22T06:53:44;94694.56;;;3.88;81.56
44751;BME280;30477;48.224;11.470;2023-12-22T06:56:20;94697.41;;;3.94;81.58
44751;BME280;30477;48.224;11.470;2023-12-22T06:58:47;94710.34;;;4.02;81.69
44751;BME280;30477;48.224;11.470;2023-12-22T07:01:35;94707.13;;;4.20;81.56
44751;BME280;30477;48.224;11.470;2023-12-22T07:04:02;94715.50;;;4.32;80.97
44751;BME280;30477;48.224;11.470;2023-12-22T07:06:29;94712.78;;;4.43;80.09
44751;BME280;30477;48.224;11.470;2023-12-22T07:11:40;94710.22;;;4.53;78.93
44751;BME280;30477;48.224;11.470;2023-12-22T07:14:06;94717.22;;;4.41;77.63
44751;BME280;30477;48.224;11.470;2023-12-22T07:16:32;94767.78;;;4.10;76.96
44751;BME280;30477;48.224;11.470;2023-12-22T07:18:58;94747.00;;;3.93;77.54
44751;BME280;30477;48.224;11.470;2023-12-22T07:21:23;94776.34;;;3.89;78.44
44751;BME280;30477;48.224;11.470;2023-12-22T07:23:48;94787.94;;;3.93;78.79
44751;BME280;30477;48.224;11.470;2023-12-22T07:26:14;94799.78;;;3.94;79.23
44751;BME280;30477;48.224;11.470;2023-12-22T07:28:39;94814.91;;;3.97;79.51
44751;BME280;30477;48.224;11.470;2023-12-22T07:31:05;94841.28;;;3.88;79.80
44751;BME280;30477;48.224;11.470;2023-12-22T07:33:30;94810.25;;;3.72;79.75
44751;BME280;30477;48.224;11.470;2023-12-22T07:35:56;94811.50;;;3.56;79.81
44751;BME280;30477;48.224;11.470;2023-12-22T07:38:21;94793.03;;;3.43;80.26
44751;BME280;30477;48.224;11.470;2023-12-22T07:40:46;94797.69;;;3.38;80.47
44751;BME280;30477;48.224;11.470;2023-12-22T07:43:12;94774.59;;;3.49;80.69
44751;BME280;30477;48.224;11.470;2023-12-22T07:45:38;94768.03;;;3.56;80.88
44751;BME280;30477;48.224;11.470;2023-12-22T07:48:04;94790.03;;;3.69;81.07
44751;BME280;30477;48.224;11.470;2023-12-22T07:50:29;94811.75;;;3.84;81.35
44751;BME280;30477;48.224;11.470;2023-12-22T07:52:54;94789.91;;;3.80;81.14
44751;BME280;30477;48.224;11.470;2023-12-22T07:55:20;94802.72;;;3.80;81.25
44751;BME280;30477;48.224;11.470;2023-12-22T07:57:45;94897.50;;;3.69;81.01
44751;BME280;30477;48.224;11.470;2023-12-22T08:00:11;94788.75;;;3.53;80.79
44751;BME280;30477;48.224;11.470;2023-12-22T08:02:37;94872.59;;;3.50;81.08
44751;BME280;30477;48.224;11.470;2023-12-22T08:05:03;94888.16;;;3.37;80.60
44751;BME280;30477;48.224;11.470;2023-12-22T08:07:28;94899.88;;;3.18;80.35
44751;BME280;30477;48.224;11.470;2023-12-22T08:09:55;94872.19;;;3.23;80.43
44751;BME280;30477;48.224;11.470;2023-12-22T08:12:20;94877.63;;;3.30;80.35
44751;BME280;30477;48.224;11.470;2023-12-22T08:14:45;94887.09;;;3.39;80.42
44751;BME280;30477;48.224;11.470;2023-12-22T08:17:11;94879.78;;;3.35;80.32
44751;BME280;30477;48.224;11.470;2023-12-22T08:19:38;94875.47;;;3.35;80.70
44751;BME280;30477;48.224;11.470;2023-12-22T08:22:03;94872.03;;;3.46;80.82
44751;BME280;30477;48.224;11.470;2023-12-22T08:24:29;94872.41;;;3.62;81.14
44751;BME280;30477;48.224;11.470;2023-12-22T08:26:54;94874.13;;;3.83;81.47
44751;BME280;30477;48.224;11.470;2023-12-22T08:29:19;94886.84;;;3.94;81.07
44751;BME280;30477;48.224;11.470;2023-12-22T08:31:45;94890.50;;;4.01;81.37
44751;BME280;30477;48.224;11.470;2023-12-22T08:34:10;94887.69;;;4.04;81.36
44751;BME280;30477;48.224;11.470;2023-12-22T08:36:36;94885.00;;;4.06;81.37
44751;BME280;30477;48.224;11.470;2023-12-22T08:39:01;94897.91;;;4.04;81.23
44751;BME280;30477;48.224;11.470;2023-12-22T08:41:27;94885.81;;;4.06;81.55
44751;BME280;30477;48.224;11.470;2023-12-22T08:43:52;94883.94;;;4.09;81.61
44751;BME280;30477;48.224;11.470;2023-12-22T08:46:18;94881.81;;;4.14;81.75
44751;BME280;30477;48.224;11.470;2023-12-22T08:48:43;94867.53;;;4.21;81.82
44751;BME280;30477;48.224;11.470;2023-12-22T08:51:08;94867.28;;;4.34;81.77
44751;BME280;30477;48.224;11.470;2023-12-22T08:53:34;94872.69;;;4.40;81.30
44751;BME280;30477;48.224;11.470;2023-12-22T08:56:02;94900.34;;;4.46;81.01
44751;BME280;30477;48.224;11.470;2023-12-22T08:58:28;94890.25;;;4.55;80.73
44751;BME280;30477;48.224;11.470;2023-12-22T09:00:54;94896.88;;;4.67;80.25
44751;BME280;30477;48.224;11.470;2023-12-22T09:03:19;94891.25;;;4.73;79.72
44751;BME280;30477;48.224;11.470;2023-12-22T09:05:44;94896.34;;;4.83;79.73
44751;BME280;30477;48.224;11.470;2023-12-22T09:08:10;94902.19;;;4.95;79.19
44751;BME280;30477;48.224;11.470;2023-12-22T09:10:35;94904.09;;;5.02;78.59
44751;BME280;30477;48.224;11.470;2023-12-22T09:13:01;94887.06;;;5.11;77.61
44751;BME280;30477;48.224;11.470;2023-12-22T09:15:26;94900.16;;;5.18;77.69
44751;BME280;30477;48.224;11.470;2023-12-22T09:17:52;94871.16;;;5.17;77.60
44751;BME280;30477;48.224;11.470;2023-12-22T09:20:18;94883.13;;;5.26;77.21
44751;BME280;30477;48.224;11.470;2023-12-22T09:22:43;94879.22;;;5.22;77.16
44751;BME280;30477;48.224;11.470;2023-12-22T09:25:09;94876.53;;;5.24;77.21
44751;BME280;30477;48.224;11.470;2023-12-22T09:27:34;94895.44;;;5.23;77.09
44751;BME280;30477;48.224;11.470;2023-12-22T09:30:00;94889.09;;;5.17;77.26
44751;BME280;30477;48.224;11.470;2023-12-22T09:32:25;94901.91;;;5.17;77.09
44751;BME280;30477;48.224;11.470;2023-12-22T09:34:51;94900.72;;;5.21;77.04
44751;BME280;30477;48.224;11.470;2023-12-22T09:37:17;94891.13;;;5.23;76.84
44751;BME280;30477;48.224;11.470;2023-12-22T09:39:42;94870.19;;;5.28;76.50
44751;BME280;30477;48.224;11.470;2023-12-22T09:42:07;94886.78;;;5.34;76.42
44751;BME280;30477;48.224;11.470;2023-12-22T09:44:33;94871.78;;;5.29;76.00
44751;BME280;30477;48.224;11.470;2023-12-22T09:46:59;94862.78;;;5.25;75.57
44751;BME280;30477;48.224;11.470;2023-12-22T09:49:26;94870.84;;;5.20;75.44
44751;BME280;30477;48.224;11.470;2023-12-22T09:51:53;94892.06;;;5.13;75.53
44751;BME280;30477;48.224;11.470;2023-12-22T09:54:19;94898.13;;;5.12;75.59
44751;BME280;30477;48.224;11.470;2023-12-22T09:56:44;94896.78;;;5.07;75.83
44751;BME280;30477;48.224;11.470;2023-12-22T09:59:12;94900.16;;;4.98;76.27
44751;BME280;30477;48.224;11.470;2023-12-22T10:01:45;94888.97;;;4.90;76.52
44751;BME280;30477;48.224;11.470;2023-12-22T10:04:14;94891.78;;;4.77;77.33
44751;BME280;30477;48.224;11.470;2023-12-22T10:06:41;94879.63;;;4.69;77.46
44751;BME280;30477;48.224;11.470;2023-12-22T10:09:07;94904.66;;;4.46;78.08
44751;BME280;30477;48.224;11.470;2023-12-22T10:11:35;94900.47;;;4.45;78.75
44751;BME280;30477;48.224;11.470;2023-12-22T10:14:02;94909.06;;;4.34;78.95
44751;BME280;30477;48.224;11.470;2023-12-22T10:16:28;94912.53;;;4.23;79.41
44751;BME280;30477;48.224;11.470;2023-12-22T10:18:54;94917.38;;;4.17;79.73
44751;BME280;30477;48.224;11.470;2023-12-22T10:21:19;94906.16;;;4.08;80.11
44751;BME280;30477;48.224;11.470;2023-12-22T10:23:45;94893.59;;;3.95;80.39
44751;BME280;30477;48.224;11.470;2023-12-22T10:26:13;94901.09;;;3.87;80.49
44751;BME280;30477;48.224;11.470;2023-12-22T10:28:38;94898.25;;;3.90;80.72
44751;BME280;30477;48.224;11.470;2023-12-22T10:31:05;94895.41;;;3.83;81.06
44751;BME280;30477;48.224;11.470;2023-12-22T10:33:32;94892.03;;;3.83;81.13
44751;BME280;30477;48.224;11.470;2023-12-22T10:36:01;94881.00;;;3.82;81.35
44751;BME280;30477;48.224;11.470;2023-12-22T10:38:33;94879.13;;;3.84;81.65
44751;BME280;30477;48.224;11.470;2023-12-22T10:41:06;94874.63;;;3.77;81.93
44751;BME280;30477;48.224;11.470;2023-12-22T10:43:39;94870.59;;;3.74;82.01
44751;BME280;30477;48.224;11.470;2023-12-22T10:46:05;94865.88;;;3.79;82.31
44751;BME280;30477;48.224;11.470;2023-12-22T10:48:30;94855.78;;;3.78;82.54
44751;BME280;30477;48.224;11.470;2023-12-22T10:50:56;94854.03;;;3.78;82.62
44751;BME280;30477;48.224;11.470;2023-12-22T10:53:21;94854.56;;;3.82;82.83
44751;BME280;30477;48.224;11.470;2023-12-22T10:55:49;94846.38;;;3.88;82.83
44751;BME280;30477;48.224;11.470;2023-12-22T10:58:16;94855.66;;;3.79;83.36
44751;BME280;30477;48.224;11.470;2023-12-22T11:00:44;94836.41;;;3.85;83.54
44751;BME280;30477;48.224;11.470;2023-12-22T11:03:13;94842.63;;;3.92;83.57
44751;BME280;30477;48.224;11.470;2023-12-22T11:05:44;94820.28;;;3.94;83.74
44751;BME280;30477;48.224;11.470;2023-12-22T11:08:11;94827.44;;;4.00;83.90
44751;BME280;30477;48.224;11.470;2023-12-22T11:10:39;94824.34;;;4.06;83.90
44751;BME280;30477;48.224;11.470;2023-12-22T11:13:07;94824.38;;;4.16;84.19
44751;BME280;30477;48.224;11.470;2023-12-22T11:15:34;94825.63;;;4.32;84.02
44751;BME280;30477;48.224;11.470;2023-12-22T11:18:01;94840.59;;;4.36;84.40
44751;BME280;30477;48.224;11.470;2023-12-22T11:20:27;94835.38;;;4.47;84.43
44751;BME280;30477;48.224;11.470;2023-12-22T11:22:53;94825.28;;;4.56;84.39
44751;BME280;30477;48.224;11.470;2023-12-22T11:25:20;94846.28;;;4.59;84.32
44751;BME280;30477;48.224;11.470;2023-12-22T11:27:48;94809.06;;;4.65;84.35
44751;BME280;30477;48.224;11.470;2023-12-22T11:30:14;94826.72;;;4.68;84.29
44751;BME280;30477;48.224;11.470;2023-12-22T11:32:43;94804.22;;;4.72;84.21
44751;BME280;30477;48.224;11.470;2023-12-22T11:35:09;94815.28;;;4.72;83.90
44751;BME280;30477;48.224;11.470;2023-12-22T11:37:35;94817.72;;;4.74;84.16
44751;BME280;30477;48.224;11.470;2023-12-22T11:40:00;94809.09;;;4.75;84.17
44751;BME280;30477;48.224;11.470;2023-12-22T11:42:30;94824.47;;;4.75;84.04
44751;BME280;30477;48.224;11.470;2023-12-22T11:45:02;94811.50;;;4.76;83.94
44751;BME280;30477;48.224;11.470;2023-12-22T11:47:27;94792.09;;;4.83;83.77
44751;BME280;30477;48.224;11.470;2023-12-22T11:49:53;94810.97;;;4.82;83.78
44751;BME280;30477;48.224;11.470;2023-12-22T11:52:25;94827.56;;;4.78;83.74
44751;BME280;30477;48.224;11.470;2023-12-22T11:54:52;94829.59;;;4.75;83.67
44751;BME280;30477;48.224;11.470;2023-12-22T12:00:01;94825.53;;;4.72;83.96
44751;BME280;30477;48.224;11.470;2023-12-22T12:02:29;94815.94;;;4.74;83.89
44751;BME280;30477;48.224;11.470;2023-12-22T12:04:57;94820.16;;;4.75;84.09
44751;BME280;30477;48.224;11.470;2023-12-22T12:10:02;94806.66;;;4.73;84.20
44751;BME280;30477;48.224;11.470;2023-12-22T12:12:28;94805.56;;;4.76;84.19
44751;BME280;30477;48.224;11.470;2023-12-22T12:14:57;94790.72;;;4.79;84.27
44751;BME280;30477;48.224;11.470;2023-12-22T12:17:23;94777.09;;;4.88;84.37
44751;BME280;30477;48.224;11.470;2023-12-22T12:19:49;94767.38;;;4.92;84.23
44751;BME280;30477;48.224;11.470;2023-12-22T12:22:14;94771.53;;;4.93;83.98
44751;BME280;30477;48.224;11.470;2023-12-22T12:24:41;94792.88;;;4.94;83.86
44751;BME280;30477;48.224;11.470;2023-12-22T12:27:06;94767.25;;;4.94;84.01
44751;BME280;30477;48.224;11.470;2023-12-22T12:29:32;94754.44;;;4.94;84.01
44751;BME280;30477;48.224;11.470;2023-12-22T12:32:05;94764.69;;;4.94;83.77
44751;BME280;30477;48.224;11.470;2023-12-22T12:34:31;94762.13;;;4.94;83.81
44751;BME280;30477;48.224;11.470;2023-12-22T12:36:57;94763.72;;;4.95;83.63
44751;BME280;30477;48.224;11.470;2023-12-22T12:39:23;94747.91;;;4.99;83.51
44751;BME280;30477;48.224;11.470;2023-12-22T12:41:54;94746.19;;;5.00;83.38
44751;BME280;30477;48.224;11.470;2023-12-22T12:44:20;94750.22;;;5.02;83.49
44751;BME280;30477;48.224;11.470;2023-12-22T12:46:47;94734.41;;;5.07;83.40
44751;BME280;30477;48.224;11.470;2023-12-22T12:49:13;94745.34;;;5.09;83.28
44751;BME280;30477;48.224;11.470;2023-12-22T12:51:44;94737.34;;;5.12;83.29
44751;BME280;30477;48.224;11.470;2023-12-22T12:54:11;94718.59;;;5.12;83.02
44751;BME280;30477;48.224;11.470;2023-12-22T12:56:40;94725.22;;;5.14;82.94
44751;BME280;30477;48.224;11.470;2023-12-22T12:59:09;94708.75;;;5.17;82.59
44751;BME280;30477;48.224;11.470;2023-12-22T13:01:48;94699.56;;;5.14;82.32